Moku Pahu — WBWK — position and weather

sailwx.info

Track history (hours):
 
Tides and Currents Weather Stations Pressure Air Temp Water Temp Dewpoint Dewpoint Depression Visibility Wind Speed Wind Dir Waves Ship Positions

Moku Pahu

Owner: MATSON NAVIGATION, RALEIGH, NC. More information available from US FCC via Universal Licensing System and Coast Guard Vessel Documentation Center.

Last reported at 2015-Aug-31 17:31 UTC. Time now 2015-Aug-31 17:49 UTC.
Position N 38°03' W 122°13'.

Type: Ship. MMSI: 366857000.

Date/timePositionNaut miles runAvg speedWind from/ knotsBaromVisibWave heightAir tempDewpointWater temp
2015-Aug-31 17:31N 38°03' W 122°13'0 0.0
2015-Aug-31 16:31N 38°03' W 122°13'0 0.0
2015-Aug-31 15:32N 38°03' W 122°13'0 0.0
2015-Aug-31 14:27N 38°03' W 122°13'0 0.0
2015-Aug-31 13:33N 38°03' W 122°13'0 0.0
2015-Aug-31 12:28N 38°03' W 122°13'0 0.0
2015-Aug-31 11:33N 38°03' W 122°13'6 5.6
2015-Aug-31 10:33N 38°03' W 122°20'1010.1
2015-Aug-31 09:34N 37°54' W 122°27'9 8.9
2015-Aug-31 08:33N 37°47' W 122°33'1010.3
2015-Aug-31 07:33N 37°42' W 122°45'8 8.1
2015-Aug-31 06:33N 37°37' W 122°53'9 8.7
2015-Aug-31 05:33N 37°32' W 123°02'9 9.0
2015-Aug-31 04:33N 37°28' W 123°12'9 9.0
2015-Aug-31 03:33N 37°23' W 123°22'9 9.2
2015-Aug-31 02:33N 37°21' W 123°33'  
Track history (hours):
 
Tides and Currents Weather Stations Pressure Air Temp Water Temp Dewpoint Dewpoint Depression Visibility Wind Speed Wind Dir Waves Ship Positions

Moku Pahu

Owner: MATSON NAVIGATION, RALEIGH, NC. More information available from US FCC via Universal Licensing System and Coast Guard Vessel Documentation Center.

Last reported at 2015-Aug-31 17:31 UTC. Time now 2015-Aug-31 17:49 UTC.
Position N 38°03' W 122°13'.

Type: Ship. MMSI: 366857000.

Date/timePositionNaut miles runAvg speedWind from/ knotsBaromVisibWave heightAir tempDewpointWater temp
2015-Aug-31 17:31N 38°03' W 122°13'0 0.0
2015-Aug-31 16:31N 38°03' W 122°13'0 0.0
2015-Aug-31 15:32N 38°03' W 122°13'0 0.0
2015-Aug-31 14:27N 38°03' W 122°13'0 0.0
2015-Aug-31 13:33N 38°03' W 122°13'0 0.0
2015-Aug-31 12:28N 38°03' W 122°13'0 0.0
2015-Aug-31 11:33N 38°03' W 122°13'6 5.6
2015-Aug-31 10:33N 38°03' W 122°20'1010.1
2015-Aug-31 09:34N 37°54' W 122°27'9 8.9
2015-Aug-31 08:33N 37°47' W 122°33'1010.3
2015-Aug-31 07:33N 37°42' W 122°45'8 8.1
2015-Aug-31 06:33N 37°37' W 122°53'9 8.7
2015-Aug-31 05:33N 37°32' W 123°02'9 9.0
2015-Aug-31 04:33N 37°28' W 123°12'9 9.0
2015-Aug-31 03:33N 37°23' W 123°22'9 9.2
2015-Aug-31 02:33N 37°21' W 123°33'  

Dump ship's entire track history